Hubert, Texas
Current Conditions -  °F | °C
As of 5:55 PM on Sunday 25 Jan 2015 (Local Time) from KRBO Reporting Station
Clear Clear  
Wind Chill: 64°   Ceiling: Unl
Heat Index: 64°   Visibility: 10mi
Dew Point: 42°   Wind: 6mph
Humidity: 44%   Direction: 330°NNW
Pressure: 30.12"   Gusts: NA
Location:  28.0654°N, 97.7489°W
Report Text: KRBO 252355Z AUTO 33005KT 10SM CLR 18/06 A3012 RMK AO2 T01800056 10234 20180
Loading
Personal Weather Stations






























Interactive Weather Map New forecast layout! Learn more

10-Day Weather Forecast

Advertisements
Track Severe Weather on mobile